createdAt,value
2018-01-07T00:01:36.327Z,23.83
2018-01-07T00:04:03.846Z,24.50
2018-01-07T00:06:32.122Z,22.30
2018-01-07T00:08:59.626Z,22.02
2018-01-07T00:11:27.139Z,21.60
2018-01-07T00:13:54.639Z,23.95
2018-01-07T00:16:22.172Z,24.35
2018-01-07T00:18:50.431Z,23.67
2018-01-07T00:21:17.934Z,25.02
2018-01-07T00:23:45.430Z,22.55
2018-01-07T00:26:13.695Z,22.40
2018-01-07T00:28:41.189Z,24.58
2018-01-07T00:31:09.455Z,23.00
2018-01-07T00:33:36.962Z,24.67
2018-01-07T00:36:04.475Z,25.00
2018-01-07T00:38:32.734Z,23.92
2018-01-07T00:41:00.422Z,24.33
2018-01-07T00:43:28.724Z,22.60
2018-01-07T00:45:56.227Z,24.08
2018-01-07T00:48:23.718Z,24.17
2018-01-07T00:50:51.978Z,23.00
2018-01-07T00:53:19.478Z,22.98
2018-01-07T00:55:46.995Z,23.33
2018-01-07T00:58:14.506Z,24.75
2018-01-07T01:00:42.014Z,23.62
2018-01-07T01:03:09.515Z,22.87
2018-01-07T01:08:10.872Z,23.08
2018-01-07T01:10:38.386Z,22.13
2018-01-07T01:13:05.930Z,22.70
2018-01-07T01:15:33.427Z,21.80
2018-01-07T01:18:01.691Z,23.10
2018-01-07T01:20:29.187Z,22.52
2018-01-07T01:22:56.706Z,25.23
2018-01-07T01:25:24.202Z,23.27
2018-01-07T01:27:51.702Z,24.30
2018-01-07T01:30:19.210Z,23.58
2018-01-07T01:32:46.713Z,23.95
2018-01-07T01:35:14.234Z,23.17
2018-01-07T01:37:41.732Z,23.90
2018-01-07T01:40:09.245Z,23.27
2018-01-07T01:42:36.762Z,22.60
2018-01-07T01:45:04.266Z,22.75
2018-01-07T01:47:31.775Z,22.10
2018-01-07T01:50:00.040Z,21.98
2018-01-07T01:52:27.551Z,21.77
2018-01-07T01:54:55.062Z,23.10
2018-01-07T01:57:22.554Z,22.80
2018-01-07T01:59:50.814Z,22.10
2018-01-07T02:02:18.490Z,22.50
2018-01-07T02:04:46.793Z,22.95
2018-01-07T02:07:14.291Z,21.85
2018-01-07T02:09:41.802Z,23.23
2018-01-07T02:12:09.442Z,22.33
2018-01-07T02:14:37.718Z,24.48
2018-01-07T02:17:06.203Z,24.60
2018-01-07T02:19:34.467Z,22.73
2018-01-07T02:22:02.250Z,23.08
2018-01-07T02:24:30.607Z,23.60
2018-01-07T02:26:58.101Z,23.33
2018-01-07T02:29:25.639Z,23.55
2018-01-07T02:31:53.903Z,23.50
2018-01-07T02:34:21.413Z,21.85
2018-01-07T02:36:48.907Z,23.35
2018-01-07T02:39:16.403Z,24.60
2018-01-07T02:41:43.899Z,24.23
2018-01-07T02:44:11.407Z,23.45
2018-01-07T02:46:39.719Z,22.13
2018-01-07T02:49:07.226Z,21.60
2018-01-07T02:51:34.732Z,22.48
2018-01-07T02:54:02.231Z,23.20
2018-01-07T02:56:29.743Z,23.77
2018-01-07T02:58:57.374Z,22.87
2018-01-07T03:01:25.851Z,23.85
2018-01-07T03:03:54.110Z,23.87
2018-01-07T03:06:21.607Z,23.15
2018-01-07T03:08:49.116Z,22.33
2018-01-07T03:11:16.683Z,24.05
2018-01-07T03:13:44.179Z,21.67
2018-01-07T03:16:11.830Z,22.50
2018-01-07T03:18:40.094Z,22.52
2018-01-07T03:21:08.404Z,23.17
2018-01-07T03:23:35.906Z,23.58
2018-01-07T03:26:03.407Z,21.83
2018-01-07T03:28:31.668Z,24.80
2018-01-07T03:30:59.936Z,23.00
2018-01-07T03:33:27.431Z,23.45
2018-01-07T03:35:54.931Z,23.23
2018-01-07T03:38:22.639Z,25.00
2018-01-07T03:40:50.907Z,22.62
2018-01-07T03:43:19.175Z,23.17
2018-01-07T03:45:47.446Z,23.05
2018-01-07T03:48:14.943Z,21.52
2018-01-07T03:50:42.443Z,22.50
2018-01-07T03:53:10.134Z,22.13
2018-01-07T03:55:38.400Z,22.35
2018-01-07T03:58:05.911Z,21.77
2018-01-07T04:00:33.427Z,20.92
2018-01-07T04:03:01.702Z,19.52
2018-01-07T04:05:29.983Z,21.65
2018-01-07T04:07:58.244Z,21.12
2018-01-07T04:10:26.534Z,22.05
2018-01-07T04:12:54.799Z,20.30
2018-01-07T04:15:22.298Z,21.05
2018-01-07T04:17:49.811Z,22.65
2018-01-07T04:20:18.070Z,22.23
2018-01-07T04:22:45.579Z,21.70
2018-01-07T04:25:13.083Z,21.70
2018-01-07T04:27:40.623Z,20.92
2018-01-07T04:30:08.117Z,20.77
2018-01-07T04:32:35.668Z,21.50
2018-01-07T04:35:03.167Z,21.48
2018-01-07T04:37:30.676Z,22.85
2018-01-07T04:39:58.183Z,22.30
2018-01-07T04:42:25.681Z,20.42
2018-01-07T04:44:53.182Z,21.67
2018-01-07T04:47:21.447Z,20.95
2018-01-07T04:49:48.938Z,23.25
2018-01-07T04:52:16.475Z,22.60
2018-01-07T04:54:44.747Z,23.35
2018-01-07T04:57:13.026Z,22.62
2018-01-07T04:59:41.295Z,22.40
2018-01-07T05:02:08.790Z,22.45
2018-01-07T05:04:36.304Z,21.83
2018-01-07T05:07:04.569Z,20.80
2018-01-07T05:09:32.263Z,21.80
2018-01-07T05:12:00.548Z,20.83
2018-01-07T05:14:28.810Z,22.62
2018-01-07T05:16:57.090Z,21.40
2018-01-07T05:19:25.351Z,21.62
2018-01-07T05:21:54.373Z,21.50
2018-01-07T05:24:21.983Z,19.98
2018-01-07T05:26:49.487Z,19.90
2018-01-07T05:29:17.754Z,20.52
2018-01-07T05:31:46.022Z,22.08
2018-01-07T05:34:13.523Z,19.87
2018-01-07T05:36:41.035Z,19.58
2018-01-07T05:39:08.578Z,19.20
2018-01-07T05:41:36.099Z,21.02
2018-01-07T05:44:03.595Z,18.92
2018-01-07T05:46:31.086Z,21.92
2018-01-07T05:48:59.362Z,21.10
2018-01-07T05:51:27.841Z,21.45
2018-01-07T05:53:56.144Z,20.33
2018-01-07T05:56:23.654Z,20.40
2018-01-07T05:58:51.935Z,22.08
2018-01-07T06:01:19.434Z,20.02
2018-01-07T06:03:46.931Z,19.35
2018-01-07T06:06:14.431Z,19.17
2018-01-07T06:08:42.702Z,21.02
2018-01-07T06:11:10.963Z,18.87
2018-01-07T06:13:38.474Z,20.73
2018-01-07T06:16:05.978Z,20.00
2018-01-07T06:18:33.471Z,19.52
2018-01-07T06:21:01.022Z,20.30
2018-01-07T06:23:29.283Z,19.77
2018-01-07T06:25:57.552Z,19.30
2018-01-07T06:28:25.097Z,19.60
2018-01-07T06:30:52.563Z,19.83
2018-01-07T06:33:20.061Z,17.67
2018-01-07T06:35:47.675Z,18.75
2018-01-07T06:38:15.173Z,17.75
2018-01-07T06:40:42.677Z,18.75
2018-01-07T06:43:10.180Z,20.65
2018-01-07T06:45:38.451Z,19.08
2018-01-07T06:48:06.722Z,19.58
2018-01-07T06:50:35.015Z,19.17
2018-01-07T06:53:02.510Z,22.42
2018-01-07T06:55:30.059Z,22.60
2018-01-07T06:57:57.562Z,23.40
2018-01-07T07:00:25.082Z,21.37
2018-01-07T07:02:52.590Z,22.27
2018-01-07T07:05:20.878Z,25.15
2018-01-07T07:07:48.395Z,23.20
2018-01-07T07:10:15.889Z,22.45
2018-01-07T07:12:44.267Z,22.85
2018-01-07T07:15:12.530Z,21.73
2018-01-07T07:17:40.032Z,23.17
2018-01-07T07:20:07.580Z,58.30
2018-01-07T07:22:35.124Z,30.55
2018-01-07T07:25:02.618Z,35.58
2018-01-07T07:27:30.133Z,33.70
2018-01-07T07:29:58.404Z,27.42
2018-01-07T07:32:26.694Z,36.13
2018-01-07T07:34:54.993Z,23.10
2018-01-07T07:37:22.532Z,21.95
2018-01-07T07:39:50.842Z,23.58
2018-01-07T07:42:18.355Z,23.00
2018-01-07T07:44:46.636Z,21.23
2018-01-07T07:47:14.476Z,20.80
2018-01-07T07:49:42.023Z,20.52
2018-01-07T07:52:09.552Z,19.83
2018-01-07T07:54:37.063Z,20.35
2018-01-07T07:57:04.564Z,22.75
2018-01-07T07:59:32.059Z,21.42
2018-01-07T08:01:59.615Z,21.25
2018-01-07T08:04:27.120Z,21.35
2018-01-07T08:06:55.379Z,21.35
2018-01-07T08:09:23.641Z,20.35
2018-01-07T08:11:51.154Z,22.42
2018-01-07T08:14:18.647Z,32.03
2018-01-07T08:16:46.157Z,26.37
2018-01-07T08:19:13.671Z,22.70
2018-01-07T08:21:41.171Z,22.17
2018-01-07T08:24:08.673Z,20.42
2018-01-07T08:26:36.191Z,19.02
2018-01-07T08:29:03.694Z,19.02
2018-01-07T08:31:31.199Z,20.20
2018-01-07T08:33:58.751Z,20.70
2018-01-07T08:36:27.033Z,21.23
2018-01-07T08:38:55.291Z,20.85
2018-01-07T08:41:22.789Z,21.85
2018-01-07T08:43:50.292Z,20.42
2018-01-07T08:46:17.885Z,20.65
2018-01-07T08:48:45.417Z,18.85
2018-01-07T08:51:13.689Z,20.12
2018-01-07T08:53:41.199Z,19.95
2018-01-07T08:56:08.758Z,21.33
2018-01-07T08:58:36.291Z,18.35
2018-01-07T09:01:04.569Z,21.90
2018-01-07T09:03:32.078Z,20.27
2018-01-07T09:05:59.578Z,19.40
2018-01-07T09:08:27.898Z,20.17
2018-01-07T09:10:55.519Z,20.67
2018-01-07T09:13:23.795Z,19.70
2018-01-07T09:15:52.110Z,20.42
2018-01-07T09:18:19.655Z,19.50
2018-01-07T09:20:47.242Z,19.25
2018-01-07T09:23:14.834Z,21.12
2018-01-07T09:25:42.393Z,20.30
2018-01-07T09:28:09.982Z,18.52
2018-01-07T09:30:38.261Z,19.50
2018-01-07T09:33:05.767Z,20.02
2018-01-07T09:35:33.263Z,17.98
2018-01-07T09:38:01.535Z,20.20
2018-01-07T09:40:29.835Z,21.60
2018-01-07T09:42:57.371Z,21.15
2018-01-07T09:45:25.630Z,19.83
2018-01-07T09:47:53.158Z,20.35
2018-01-07T09:50:20.696Z,20.73
2018-01-07T09:52:48.300Z,20.30
2018-01-07T09:55:15.799Z,21.70
2018-01-07T09:57:44.103Z,21.23
2018-01-07T10:00:11.669Z,22.75
2018-01-07T10:02:39.195Z,20.77
2018-01-07T10:05:07.467Z,21.80
2018-01-07T10:07:35.735Z,20.80
2018-01-07T10:12:37.986Z,22.02
2018-01-07T10:15:05.513Z,22.75
2018-01-07T10:17:33.062Z,23.30
2018-01-07T10:20:00.563Z,24.25
2018-01-07T10:22:28.087Z,23.58
2018-01-07T10:24:55.629Z,21.48
2018-01-07T10:27:23.309Z,23.33
2018-01-07T10:29:50.847Z,23.52
2018-01-07T10:32:19.147Z,22.75
2018-01-07T10:34:46.659Z,24.20
2018-01-07T10:37:14.982Z,22.95
2018-01-07T10:39:42.483Z,21.70
2018-01-07T10:42:10.099Z,28.67
2018-01-07T10:44:37.639Z,35.25
2018-01-07T10:47:05.939Z,21.87
2018-01-07T10:49:33.447Z,23.30
2018-01-07T10:52:00.999Z,22.17
2018-01-07T10:54:28.671Z,25.05
2018-01-07T10:56:57.696Z,26.50
2018-01-07T10:59:25.280Z,24.85
2018-01-07T11:01:57.731Z,27.02
2018-01-07T11:04:25.243Z,25.48
2018-01-07T11:06:52.748Z,24.45
2018-01-07T11:09:20.259Z,25.37
2018-01-07T11:11:47.767Z,22.05
2018-01-07T11:14:15.263Z,21.17
2018-01-07T11:16:42.758Z,20.37
2018-01-07T11:19:11.023Z,20.10
2018-01-07T11:21:38.528Z,21.33
2018-01-07T11:24:06.023Z,22.60
2018-01-07T11:26:33.521Z,21.30
2018-01-07T11:29:01.835Z,23.87
2018-01-07T11:31:29.336Z,22.80
2018-01-07T11:33:56.836Z,22.13
2018-01-07T11:36:24.340Z,21.65
2018-01-07T11:38:51.835Z,22.50
2018-01-07T11:44:51.179Z,27.40
2018-01-07T11:47:18.700Z,23.52
2018-01-07T11:49:46.991Z,23.23
2018-01-07T11:52:15.310Z,23.05
2018-01-07T11:54:42.834Z,23.38
2018-01-07T11:57:10.353Z,22.67
2018-01-07T11:59:37.965Z,21.70
2018-01-07T12:02:05.567Z,23.58
2018-01-07T12:04:33.087Z,24.52
2018-01-07T12:07:00.588Z,23.77
2018-01-07T12:09:28.103Z,24.40
2018-01-07T12:11:55.610Z,23.55
2018-01-07T12:14:23.111Z,22.85
2018-01-07T12:16:50.619Z,23.45
2018-01-07T12:19:18.171Z,24.70
2018-01-07T12:21:45.757Z,26.60
2018-01-07T12:24:13.272Z,23.08
2018-01-07T12:26:40.867Z,24.67
2018-01-07T12:29:08.411Z,24.65
2018-01-07T12:31:35.911Z,24.85
2018-01-07T12:34:04.188Z,22.67
2018-01-07T12:36:32.458Z,23.25
2018-01-07T12:39:00.736Z,22.17
2018-01-07T12:41:29.040Z,24.42
2018-01-07T12:43:56.539Z,23.40
2018-01-07T12:46:24.056Z,24.08
2018-01-07T12:48:51.603Z,22.35
2018-01-07T12:51:19.147Z,25.23
2018-01-07T12:53:47.411Z,23.87
2018-01-07T12:56:14.903Z,24.08
2018-01-07T12:58:42.408Z,23.83
2018-01-07T13:01:09.904Z,27.15
2018-01-07T13:03:38.162Z,23.98
2018-01-07T13:06:06.427Z,27.80
2018-01-07T13:08:33.946Z,26.90
2018-01-07T13:11:01.455Z,26.80
2018-01-07T13:13:29.727Z,25.25
2018-01-07T13:15:57.227Z,23.70
2018-01-07T13:18:24.727Z,26.35
2018-01-07T13:20:52.227Z,24.30
2018-01-07T13:23:19.723Z,25.20
2018-01-07T13:25:47.223Z,26.20
2018-01-07T13:28:15.499Z,26.10
2018-01-07T13:30:43.797Z,27.20
2018-01-07T13:33:11.338Z,25.25
2018-01-07T13:35:39.760Z,25.80
2018-01-07T13:38:07.263Z,25.80
2018-01-07T13:40:34.775Z,26.62
2018-01-07T13:43:02.407Z,27.87
2018-01-07T13:45:30.679Z,27.62
2018-01-07T13:47:59.155Z,26.87
2018-01-07T13:50:27.440Z,29.65
2018-01-07T13:52:55.714Z,26.37
2018-01-07T13:55:24.084Z,26.98
2018-01-07T13:57:52.581Z,28.20
2018-01-07T14:00:20.867Z,27.58
2018-01-07T14:02:48.391Z,29.37
2018-01-07T14:05:15.898Z,28.73
2018-01-07T14:07:43.532Z,28.30
2018-01-07T14:10:11.845Z,28.17
2018-01-07T14:12:39.387Z,28.02
2018-01-07T14:15:06.956Z,28.30
2018-01-07T14:17:34.459Z,28.87
2018-01-07T14:20:01.962Z,27.55
2018-01-07T14:22:29.506Z,29.45
2018-01-07T14:24:57.775Z,27.70
2018-01-07T14:27:26.124Z,28.58
2018-01-07T14:29:53.650Z,27.37
2018-01-07T14:32:21.191Z,36.85
2018-01-07T14:34:48.727Z,33.78
2018-01-07T14:37:17.043Z,32.75
2018-01-07T14:39:44.637Z,28.00
2018-01-07T14:42:12.198Z,30.55
2018-01-07T14:44:41.274Z,30.08
2018-01-07T14:47:08.783Z,30.15
2018-01-07T14:49:37.054Z,32.10
2018-01-07T14:52:05.580Z,36.88
2018-01-07T14:54:33.213Z,32.10
2018-01-07T14:57:00.779Z,31.98
2018-01-07T14:59:29.024Z,29.83
2018-01-07T15:01:57.518Z,30.52
2018-01-07T15:04:25.787Z,31.40
2018-01-07T15:06:54.086Z,30.05
2018-01-07T15:09:21.758Z,28.92
2018-01-07T15:11:49.279Z,30.30
2018-01-07T15:14:16.867Z,31.83
2018-01-07T15:16:44.413Z,28.30
2018-01-07T15:19:12.674Z,30.67
2018-01-07T15:21:41.002Z,32.20
2018-01-07T15:24:08.503Z,32.63
2018-01-07T15:26:36.051Z,33.90
2018-01-07T15:29:03.659Z,30.23
2018-01-07T15:31:31.256Z,32.88
2018-01-07T15:33:58.747Z,34.65
2018-01-07T15:36:26.294Z,32.53
2018-01-07T15:38:53.902Z,46.08
2018-01-07T15:41:21.394Z,40.47
2018-01-07T15:43:48.966Z,35.22
2018-01-07T15:46:16.510Z,35.90
2018-01-07T15:48:44.027Z,34.88
2018-01-07T15:51:11.530Z,34.78
2018-01-07T15:53:39.042Z,34.80
2018-01-07T15:56:06.572Z,35.67
2018-01-07T15:58:34.067Z,35.72
2018-01-07T16:01:01.571Z,34.30
2018-01-07T16:03:29.068Z,33.80
2018-01-07T16:05:57.339Z,33.65
2018-01-07T16:08:25.818Z,35.65
2018-01-07T16:10:54.083Z,34.85
2018-01-07T16:13:22.347Z,37.70
2018-01-07T16:15:49.855Z,37.17
2018-01-07T16:18:17.360Z,41.10
2018-01-07T16:20:44.863Z,40.75
2018-01-07T16:23:12.402Z,42.08
2018-01-07T16:25:39.916Z,42.25
2018-01-07T16:28:07.426Z,40.20
2018-01-07T16:30:35.703Z,39.55
2018-01-07T16:33:03.984Z,40.80
2018-01-07T16:35:32.247Z,39.70
2018-01-07T16:38:00.526Z,35.28
2018-01-07T16:40:28.794Z,36.88
2018-01-07T16:42:56.291Z,35.67
2018-01-07T16:45:23.828Z,34.83
2018-01-07T16:47:52.086Z,35.97
2018-01-07T16:50:19.584Z,34.45
2018-01-07T16:52:47.099Z,31.48
2018-01-07T16:55:14.599Z,31.58
2018-01-07T16:57:43.000Z,31.58
2018-01-07T17:00:10.539Z,32.85
2018-01-07T17:02:38.051Z,32.17
2018-01-07T17:05:05.584Z,31.30
2018-01-07T17:07:33.079Z,29.67
2018-01-07T17:10:01.349Z,29.60
2018-01-07T17:12:28.859Z,29.27
2018-01-07T17:14:56.355Z,35.30
2018-01-07T17:17:24.797Z,32.20
2018-01-07T17:19:52.287Z,29.10
2018-01-07T17:22:19.836Z,28.67
2018-01-07T17:24:47.343Z,31.02
2018-01-07T17:27:15.622Z,31.27
2018-01-07T17:29:43.142Z,33.42
2018-01-07T17:32:10.737Z,35.05
2018-01-07T17:34:38.271Z,31.85
2018-01-07T17:37:06.563Z,29.98
2018-01-07T17:39:34.822Z,30.80
2018-01-07T17:42:02.340Z,30.02
2018-01-07T17:44:29.886Z,30.20
2018-01-07T17:46:57.387Z,30.92
2018-01-07T17:49:24.963Z,30.08
2018-01-07T17:51:52.475Z,30.42
2018-01-07T17:54:19.982Z,31.02
2018-01-07T17:56:47.487Z,27.80
2018-01-07T17:59:14.978Z,28.40
2018-01-07T18:01:42.492Z,29.15
2018-01-07T18:04:09.982Z,28.65
2018-01-07T18:06:37.495Z,28.80
2018-01-07T18:09:04.990Z,27.48
2018-01-07T18:11:32.494Z,25.83
2018-01-07T18:14:00.989Z,26.12
2018-01-07T18:16:29.269Z,23.95
2018-01-07T18:18:57.542Z,25.73
2018-01-07T18:21:25.811Z,26.35
2018-01-07T18:23:54.089Z,26.15
2018-01-07T18:26:22.362Z,25.98
2018-01-07T18:28:50.643Z,23.98
2018-01-07T18:31:18.907Z,25.33
2018-01-07T18:33:47.174Z,23.23
2018-01-07T18:36:14.863Z,26.85
2018-01-07T18:38:43.123Z,27.73
2018-01-07T18:41:11.382Z,25.02
2018-01-07T18:43:38.900Z,24.37
2018-01-07T18:46:06.523Z,23.98
2018-01-07T18:48:34.799Z,23.50
2018-01-07T18:51:03.067Z,23.08
2018-01-07T18:53:30.586Z,23.77
2018-01-07T18:55:58.092Z,23.42
2018-01-07T18:58:26.354Z,23.52
2018-01-07T19:00:53.876Z,23.33
2018-01-07T19:03:21.390Z,24.75
2018-01-07T19:05:49.651Z,26.02
2018-01-07T19:08:17.146Z,24.30
2018-01-07T19:10:44.659Z,24.08
2018-01-07T19:13:12.155Z,25.83
2018-01-07T19:15:39.673Z,28.05
2018-01-07T19:18:07.187Z,30.50
2018-01-07T19:20:34.745Z,27.65
2018-01-07T19:23:02.429Z,23.50
2018-01-07T19:25:29.926Z,24.52
2018-01-07T19:27:58.199Z,24.40
2018-01-07T19:30:25.722Z,23.58
2018-01-07T19:32:53.234Z,24.35
2018-01-07T19:35:21.536Z,23.70
2018-01-07T19:37:49.027Z,24.27
2018-01-07T19:40:16.584Z,24.00
2018-01-07T19:42:44.095Z,24.05
2018-01-07T19:45:11.595Z,24.48
2018-01-07T19:47:39.099Z,22.52
2018-01-07T19:50:07.408Z,22.85
2018-01-07T19:52:34.917Z,22.80
2018-01-07T19:55:03.811Z,23.30
2018-01-07T19:57:31.543Z,24.33
2018-01-07T19:59:59.089Z,25.33
2018-01-07T20:02:26.603Z,24.02
2018-01-07T20:04:54.870Z,24.27
2018-01-07T20:07:22.371Z,23.73
2018-01-07T20:09:49.879Z,24.77
2018-01-07T20:12:18.160Z,28.73
2018-01-07T20:14:45.651Z,25.50
2018-01-07T20:17:13.359Z,24.52
2018-01-07T20:19:40.861Z,26.20
2018-01-07T20:22:09.356Z,31.35
2018-01-07T20:24:36.851Z,27.67
2018-01-07T20:27:04.370Z,26.12
2018-01-07T20:29:31.884Z,25.50
2018-01-07T20:31:59.460Z,25.20
2018-01-07T20:34:27.767Z,25.20
2018-01-07T20:36:55.279Z,25.15
2018-01-07T20:39:22.791Z,25.15
2018-01-07T20:41:50.291Z,26.20
2018-01-07T20:44:17.813Z,26.45
2018-01-07T20:46:45.327Z,25.02
2018-01-07T20:49:12.827Z,27.40
2018-01-07T20:51:40.323Z,26.73
2018-01-07T20:54:07.825Z,26.27
2018-01-07T20:56:35.355Z,27.65
2018-01-07T20:59:02.871Z,26.60
2018-01-07T21:01:30.395Z,27.17
2018-01-07T21:03:58.654Z,26.67
2018-01-07T21:06:26.940Z,26.25
2018-01-07T21:08:55.224Z,27.95
2018-01-07T21:11:23.535Z,29.77
2018-01-07T21:13:51.064Z,28.02
2018-01-07T21:16:19.333Z,28.10
2018-01-07T21:18:47.816Z,26.40
2018-01-07T21:21:16.086Z,28.20
2018-01-07T21:23:44.359Z,28.60
2018-01-07T21:26:12.625Z,27.52
2018-01-07T21:28:40.131Z,26.37
2018-01-07T21:31:07.630Z,27.52
2018-01-07T21:33:35.578Z,28.98
2018-01-07T21:36:03.103Z,28.40
2018-01-07T21:38:30.624Z,27.55
2018-01-07T21:40:58.118Z,28.33
2018-01-07T21:43:25.658Z,28.42
2018-01-07T21:45:53.939Z,29.10
2018-01-07T21:48:22.321Z,29.98
2018-01-07T21:50:50.599Z,29.15
2018-01-07T21:53:18.876Z,29.20
2018-01-07T21:55:47.134Z,30.40
2018-01-07T21:58:14.631Z,32.40
2018-01-07T22:00:53.999Z,31.17
2018-01-07T22:03:33.443Z,29.87
2018-01-07T22:06:12.918Z,30.98
2018-01-07T22:08:41.263Z,30.48
2018-01-07T22:11:08.784Z,29.40
2018-01-07T22:13:36.329Z,31.87
2018-01-07T22:16:03.832Z,31.77
2018-01-07T22:18:31.332Z,31.23
2018-01-07T22:20:59.607Z,30.88
2018-01-07T22:23:27.887Z,31.50
2018-01-07T22:25:56.165Z,30.83
2018-01-07T22:28:24.442Z,31.55
2018-01-07T22:30:52.944Z,30.80
2018-01-07T22:33:20.443Z,31.35
2018-01-07T22:35:47.938Z,29.80
2018-01-07T22:38:16.319Z,30.33
2018-01-07T22:40:44.582Z,31.20
2018-01-07T22:43:12.872Z,40.83
2018-01-07T22:45:41.169Z,42.53
2018-01-07T22:48:09.486Z,39.00
2018-01-07T22:50:37.175Z,42.08
2018-01-07T22:53:05.479Z,40.67
2018-01-07T22:55:32.979Z,43.33
2018-01-07T22:58:00.474Z,38.58
2018-01-07T23:00:28.738Z,31.00
2018-01-07T23:02:56.236Z,33.45
2018-01-07T23:05:23.735Z,34.80
2018-01-07T23:07:51.286Z,33.22
2018-01-07T23:10:18.786Z,32.83
2018-01-07T23:12:47.067Z,34.05
2018-01-07T23:15:15.332Z,32.72
2018-01-07T23:17:43.587Z,33.20
2018-01-07T23:20:11.088Z,34.10
2018-01-07T23:22:38.699Z,32.60
2018-01-07T23:25:06.195Z,35.58
2018-01-07T23:27:34.458Z,34.45
2018-01-07T23:30:02.724Z,33.25
2018-01-07T23:32:30.227Z,34.13
2018-01-07T23:34:57.740Z,36.63
2018-01-07T23:37:25.244Z,36.55
2018-01-07T23:39:52.749Z,35.63
2018-01-07T23:42:20.457Z,37.00
2018-01-07T23:44:47.946Z,34.95
2018-01-07T23:47:15.456Z,34.33
2018-01-07T23:49:43.719Z,36.45
2018-01-07T23:52:12.039Z,36.00
2018-01-07T23:54:39.536Z,36.67
2018-01-07T23:57:07.031Z,36.80
2018-01-07T23:59:35.315Z,35.72
